Ward Cove, Alaska
Current Conditions -  °F | °C
As of 12:53 PM on Thursday 18 Dec 2014 (Local Time) from PAKT Reporting Station
Light Rain Light Rain  
Wind Chill: 35°   Ceiling: 3000
Heat Index: 42°   Visibility: 7mi
Dew Point: 35°   Wind: 13mph
Humidity: 76%   Direction: 140°SE
Pressure: 29.36"   Gusts: 20mph
Location:  55.4°N, 131.74°W
Report Text: PAKT 182153Z 14011G17KT 7SM -RA FEW018 OVC030 06/02 A2936 RMK AO2 RAB18 SLP944 ROOF WIND 11025G33KT P0000 T00560017 $
Loading
Personal Weather Stations






























Interactive Weather Map New forecast layout! Learn more

10-Day Weather Forecast

Advertisements
Track Severe Weather on mobile